Time;durP1;ratioP1;P1;durP2;ratioP2;P2;SDS_P1;SDS_P2;PMS_P1;PMS_P2;Temp;Humidity;BMP_temperature;BMP_pressure;BME280_temperature;BME280_humidity;BME280_pressure;Samples;Min_cycle;Max_cycle;Signal;HPM_P1;HPM_P2
2021/12/11 00:00:42;;;;;;;25.10;13.85;;;-1.80;99.90;;;;;;5004214;28;20049;-83
2021/12/11 00:03:33;;;;;;;23.33;13.75;;;-0.70;99.90;;;;;;5011347;28;20397;-82
2021/12/11 00:06:09;;;;;;;22.63;13.63;;;-1.70;99.90;;;;;;5010896;28;20055;-82
2021/12/11 00:08:36;;;;;;;21.65;13.43;;;-1.00;99.90;;;;;;5027963;28;20061;-82
2021/12/11 00:11:04;;;;;;;21.83;13.38;;;-0.50;99.90;;;;;;5028436;28;20150;-82
2021/12/11 00:13:36;;;;;;;29.38;14.30;;;-1.70;99.90;;;;;;5022833;28;20037;-82
2021/12/11 00:16:04;;;;;;;28.10;13.60;;;-1.70;99.90;;;;;;5013080;28;20045;-82
2021/12/11 00:18:31;;;;;;;21.20;12.63;;;-1.60;99.90;;;;;;5009461;28;20144;-82
2021/12/11 00:21:04;;;;;;;20.23;12.45;;;-1.60;99.90;;;;;;4994598;28;20361;-82
2021/12/11 00:24:01;;;;;;;23.77;12.65;;;-1.60;99.90;;;;;;5009146;28;20508;-82
2021/12/11 00:26:33;;;;;;;18.35;11.57;;;-1.70;99.90;;;;;;5005313;28;20044;-83
2021/12/11 00:28:59;;;;;;;19.13;10.95;;;-1.70;99.90;;;;;;5026747;28;20479;-83
2021/12/11 00:31:30;;;;;;;19.52;10.15;;;-1.70;99.90;;;;;;5011152;28;20042;-82
2021/12/11 00:33:56;;;;;;;20.15;11.13;;;-1.00;99.90;;;;;;5026866;28;20479;-83
2021/12/11 00:36:31;;;;;;;20.00;10.93;;;-1.70;99.90;;;;;;4988827;28;20077;-82
2021/12/11 00:39:05;;;;;;;;;;;-1.50;99.90;;;;;;4988361;28;20482;-82
2021/12/11 00:41:33;;;;;;;27.42;12.75;;;-1.70;99.90;;;;;;5030921;28;19920;-83
2021/12/11 00:44:01;;;;;;;26.40;12.65;;;-1.30;99.90;;;;;;5015896;28;20357;-82
2021/12/11 00:46:28;;;;;;;24.23;13.45;;;-1.90;99.90;;;;;;5009394;28;20435;-82
2021/12/11 00:49:05;;;;;;;21.23;12.10;;;-0.90;99.90;;;;;;5022875;28;20053;-83
2021/12/11 00:51:31;;;;;;;25.38;12.43;;;-1.00;99.90;;;;;;4987163;28;20029;-83
2021/12/11 00:53:58;;;;;;;18.85;11.57;;;-0.90;99.90;;;;;;5000563;28;20057;-82
2021/12/11 00:56:31;;;;;;;22.38;11.40;;;-1.80;99.90;;;;;;5008992;28;20069;-82
2021/12/11 00:59:02;;;;;;;18.58;11.15;;;-0.80;99.90;;;;;;5016458;28;20381;-83
2021/12/11 01:01:35;;;;;;;22.55;11.02;;;-1.80;99.90;;;;;;5025432;28;20037;-82
2021/12/11 01:04:08;;;;;;;20.48;11.23;;;-1.80;99.90;;;;;;4993823;28;20029;-83
2021/12/11 01:06:57;;;;;;;21.77;11.15;;;-1.90;99.90;;;;;;5025936;28;20228;-83
2021/12/11 01:09:31;;;;;;;24.17;11.93;;;-1.90;99.90;;;;;;5024856;28;20053;-83
2021/12/11 01:12:07;;;;;;;20.83;11.68;;;-1.90;99.90;;;;;;5005104;28;20044;-83
2021/12/11 01:14:42;;;;;;;21.70;11.80;;;-1.30;99.90;;;;;;5026904;28;20042;-83
2021/12/11 01:17:17;;;;;;;;;;;-1.90;99.90;;;;;;5009688;28;20046;-83
2021/12/11 01:19:45;;;;;;;20.23;10.95;;;-1.90;99.90;;;;;;5028737;28;19923;-82
2021/12/11 01:22:34;;;;;;;19.90;11.88;;;-0.70;99.90;;;;;;4982533;28;20041;-82
2021/12/11 01:25:22;;;;;;;24.60;11.93;;;-1.90;99.90;;;;;;5012186;28;20120;-83
2021/12/11 01:27:53;;;;;;;22.83;11.45;;;-1.90;99.90;;;;;;5004098;28;20053;-82
2021/12/11 01:30:29;;;;;;;18.35;10.65;;;-1.60;99.90;;;;;;5025565;28;20034;-83
2021/12/11 01:32:55;;;;;;;19.45;11.00;;;-1.90;99.90;;;;;;5007916;28;20050;-82
2021/12/11 01:35:22;;;;;;;21.17;11.40;;;-1.00;99.90;;;;;;5009672;28;20037;-83
2021/12/11 01:37:51;;;;;;;18.88;10.63;;;-2.00;99.90;;;;;;5006843;28;20148;-83
2021/12/11 01:40:21;;;;;;;17.38;9.90;;;-2.00;99.90;;;;;;5006550;28;20247;-83
2021/12/11 01:42:47;;;;;;;20.20;11.13;;;-1.50;99.90;;;;;;4994179;28;20083;-83
2021/12/11 01:45:16;;;;;;;19.55;11.43;;;-2.10;99.90;;;;;;5007142;28;20037;-83
2021/12/11 01:47:47;;;;;;;21.35;11.68;;;-2.10;99.90;;;;;;4992045;28;20485;-83
2021/12/11 01:50:28;;;;;;;22.00;12.02;;;-2.20;99.90;;;;;;5010929;28;20036;-83
2021/12/11 01:53:05;;;;;;;26.85;13.93;;;-2.10;99.90;;;;;;4989793;28;20038;-83
2021/12/11 01:56:01;;;;;;;27.77;15.25;;;-2.10;99.90;;;;;;5007598;28;20053;-82
2021/12/11 01:59:02;;;;;;;47.03;18.10;;;-2.00;99.90;;;;;;4985248;28;20056;-82
2021/12/11 02:01:52;;;;;;;37.42;18.23;;;-2.00;99.90;;;;;;4989960;28;20074;-83
2021/12/11 02:04:22;;;;;;;32.55;17.30;;;-2.00;99.90;;;;;;4961449;28;20035;-83
2021/12/11 02:06:50;;;;;;;35.75;17.48;;;-2.00;99.90;;;;;;4982875;28;20054;-83
2021/12/11 02:09:25;;;;;;;32.55;15.93;;;-2.10;99.90;;;;;;4971709;28;20050;-83
2021/12/11 02:12:11;;;;;;;28.25;14.77;;;-0.90;99.90;;;;;;4984644;28;20051;-83
2021/12/11 02:14:44;;;;;;;28.65;15.55;;;-1.30;99.90;;;;;;4958151;28;20423;-82
2021/12/11 02:17:33;;;;;;;33.35;16.40;;;-1.40;99.90;;;;;;4977235;28;20054;-82
2021/12/11 02:20:05;;;;;;;31.20;15.98;;;-2.10;99.90;;;;;;4946100;28;20069;-82
2021/12/11 02:22:39;;;;;;;27.98;15.68;;;-2.10;99.90;;;;;;4957660;28;20103;-82
2021/12/11 02:25:10;;;;;;;30.45;16.92;;;-1.60;99.90;;;;;;4961357;28;20062;-82
2021/12/11 02:27:48;;;;;;;34.50;17.13;;;-0.90;99.90;;;;;;4968134;28;20073;-82
2021/12/11 02:30:23;;;;;;;33.50;17.48;;;-2.10;99.90;;;;;;4945135;28;20034;-83
2021/12/11 02:33:13;;;;;;;30.85;15.57;;;-2.10;99.90;;;;;;4963444;28;20525;-83
2021/12/11 02:35:52;;;;;;;29.92;16.20;;;-2.20;99.90;;;;;;4956535;28;20118;-82
2021/12/11 02:38:30;;;;;;;28.33;15.85;;;-2.20;99.90;;;;;;4988849;28;20144;-82
2021/12/11 02:41:03;;;;;;;28.00;15.15;;;-2.30;99.90;;;;;;5024136;28;20151;-82
2021/12/11 02:43:54;;;;;;;28.23;15.32;;;-2.20;99.90;;;;;;5007962;28;20040;-83
2021/12/11 02:46:40;;;;;;;29.13;15.32;;;-1.70;99.90;;;;;;5003648;28;20381;-83
2021/12/11 02:49:21;;;;;;;33.70;17.38;;;-2.20;99.90;;;;;;4999998;28;20521;-82
2021/12/11 02:51:53;;;;;;;31.83;16.80;;;-2.30;99.90;;;;;;4993093;28;20120;-83
2021/12/11 02:54:28;;;;;;;36.30;17.92;;;-1.90;99.90;;;;;;5008315;28;20232;-83
2021/12/11 02:57:19;;;;;;;30.98;16.98;;;-2.20;99.90;;;;;;5010827;28;20072;-83
2021/12/11 02:59:47;;;;;;;30.23;17.05;;;-2.20;99.90;;;;;;4991248;28;20042;-81
2021/12/11 03:02:29;;;;;;;36.28;18.73;;;-1.20;99.90;;;;;;5011411;28;20084;-82
2021/12/11 03:05:05;;;;;;;40.85;19.65;;;-1.10;99.90;;;;;;5007314;28;20038;-81
2021/12/11 03:07:36;;;;;;;36.58;19.42;;;-1.90;99.90;;;;;;4984938;28;20045;-81
2021/12/11 03:10:08;;;;;;;38.92;19.05;;;-1.20;99.90;;;;;;4994095;28;20088;-81
2021/12/11 03:12:34;;;;;;;38.17;18.90;;;-1.90;99.90;;;;;;4991874;28;20414;-81
2021/12/11 03:15:07;;;;;;;40.17;20.25;;;-1.90;99.90;;;;;;5007286;28;20045;-83
2021/12/11 03:17:43;;;;;;;45.03;21.77;;;-1.90;99.90;;;;;;4991423;28;21662;-82
2021/12/11 03:20:17;;;;;;;48.15;22.90;;;-1.80;99.90;;;;;;4993856;28;20088;-83
2021/12/11 03:22:47;;;;;;;45.22;22.00;;;-1.30;99.90;;;;;;5008265;28;20042;-82
2021/12/11 03:25:24;;;;;;;42.70;22.50;;;-1.00;99.90;;;;;;4989269;28;20042;-82
2021/12/11 03:27:53;;;;;;;46.85;22.50;;;-1.80;99.90;;;;;;5007868;28;20049;-82
2021/12/11 03:30:24;;;;;;;42.85;20.92;;;-1.90;99.90;;;;;;4992421;28;20507;-82
2021/12/11 03:32:53;;;;;;;46.03;22.38;;;-0.80;99.90;;;;;;5007025;28;20042;-84
2021/12/11 03:35:20;;;;;;;44.22;22.60;;;-1.50;99.90;;;;;;5008493;28;20375;-83
2021/12/11 03:37:47;;;;;;;37.17;21.02;;;-1.90;99.90;;;;;;5032456;28;20397;-82
2021/12/11 03:40:14;;;;;;;34.53;18.55;;;-1.90;99.90;;;;;;5011193;28;20116;-82
2021/12/11 03:42:42;;;;;;;37.17;18.60;;;-0.70;99.90;;;;;;5009918;28;20044;-82
2021/12/11 03:45:16;;;;;;;37.17;19.20;;;-1.50;99.90;;;;;;4995818;28;20041;-83
2021/12/11 03:47:47;;;;;;;39.65;20.15;;;-1.90;99.90;;;;;;4985786;28;20045;-83
2021/12/11 03:50:15;;;;;;;32.35;19.67;;;-1.80;99.90;;;;;;5008813;28;20029;-83
2021/12/11 03:52:43;;;;;;;38.40;20.25;;;-1.40;99.90;;;;;;5004390;28;20469;-83
2021/12/11 03:55:12;;;;;;;39.38;20.05;;;-1.90;99.90;;;;;;4983238;28;20549;-82
2021/12/11 03:57:39;;;;;;;38.42;21.30;;;-1.90;99.90;;;;;;5003412;28;20040;-83
2021/12/11 04:00:11;;;;;;;40.03;21.35;;;-2.00;99.90;;;;;;5021839;28;20087;-83
2021/12/11 04:02:37;;;;;;;39.15;19.77;;;-2.00;99.90;;;;;;5009739;28;20101;-83
2021/12/11 04:05:06;;;;;;;45.75;24.10;;;-2.10;99.90;;;;;;5005090;28;20041;-83
2021/12/11 04:07:38;;;;;;;46.88;23.73;;;-2.00;99.90;;;;;;5007923;28;20079;-82
2021/12/11 04:10:09;;;;;;;44.75;23.35;;;-2.10;99.90;;;;;;4983588;28;20053;-83
2021/12/11 04:12:35;;;;;;;45.75;22.60;;;-1.80;99.90;;;;;;4997018;28;20195;-82
2021/12/11 04:15:05;;;;;;;47.15;21.80;;;-1.00;99.90;;;;;;4985800;28;20069;-82
2021/12/11 04:17:31;;;;;;;39.15;20.85;;;-1.90;99.90;;;;;;4980142;28;20134;-82
2021/12/11 04:20:00;;;;;;;55.58;25.73;;;-1.50;99.90;;;;;;4975394;28;20487;-82
2021/12/11 04:22:27;;;;;;;58.30;25.90;;;-2.70;99.90;;;;;;4977049;28;20551;-83
2021/12/11 04:25:02;;;;;;;48.85;24.75;;;-0.90;99.90;;;;;;4995112;28;20508;-82
2021/12/11 04:27:31;;;;;;;59.95;28.10;;;-2.40;99.90;;;;;;4994801;28;20469;-83
2021/12/11 04:30:03;;;;;;;50.38;25.75;;;-1.00;99.90;;;;;;4993857;28;20058;-83
2021/12/11 04:32:38;;;;;;;54.90;26.98;;;-1.80;99.90;;;;;;4973905;28;20129;-82
2021/12/11 04:35:08;;;;;;;39.63;21.90;;;-0.60;99.90;;;;;;4993968;28;20030;-83
2021/12/11 04:37:35;;;;;;;39.38;22.05;;;-1.80;99.90;;;;;;4983956;28;20183;-82
2021/12/11 04:40:08;;;;;;;36.15;21.00;;;-1.30;99.90;;;;;;5000348;28;20052;-82
2021/12/11 04:45:15;;;;;;;33.90;19.67;;;-1.90;99.90;;;;;;5007397;28;20054;-83
2021/12/11 04:47:47;;;;;;;33.70;19.33;;;-2.00;99.90;;;;;;4991977;28;20046;-83
2021/12/11 04:50:35;;;;;;;35.20;20.50;;;-1.80;99.90;;;;;;4992512;28;20053;-83
2021/12/11 04:53:22;;;;;;;36.20;19.50;;;-2.60;99.90;;;;;;4973549;28;20472;-82
2021/12/11 04:58:39;;;;;;;33.42;19.02;;;-2.20;99.90;;;;;;5025365;28;20065;-83
2021/12/11 05:01:35;;;;;;;34.63;18.83;;;-2.10;99.90;;;;;;5001717;28;20059;-82
2021/12/11 05:06:39;;;;;;;43.38;20.77;;;-2.40;99.90;;;;;;5000557;28;20124;-83
2021/12/11 05:12:04;;;;;;;32.25;18.05;;;-1.20;99.90;;;;;;4991758;28;20041;-83
2021/12/11 05:14:30;;;;;;;31.88;18.95;;;-1.40;99.90;;;;;;4990068;28;20042;-83
2021/12/11 05:16:56;;;;;;;32.88;18.77;;;-1.50;99.90;;;;;;5006026;28;20213;-83
2021/12/11 05:19:22;;;;;;;33.42;19.00;;;-1.40;99.90;;;;;;4990647;28;20042;-82
2021/12/11 05:21:48;;;;;;;34.67;19.27;;;-1.60;99.90;;;;;;4991761;28;20052;-82
2021/12/11 05:24:17;;;;;;;34.97;19.15;;;-2.30;99.90;;;;;;4989147;28;20505;-82
2021/12/11 05:26:43;;;;;;;32.60;18.50;;;-2.30;99.90;;;;;;5007550;28;20127;-82
2021/12/11 05:29:10;;;;;;;37.35;19.73;;;-3.00;99.90;;;;;;4984286;28;20125;-83
2021/12/11 05:31:36;;;;;;;36.35;18.20;;;-1.40;99.90;;;;;;4991881;28;20038;-83
2021/12/11 05:34:03;;;;;;;33.15;19.15;;;-2.70;99.90;;;;;;4989750;28;20125;-82
2021/12/11 05:36:31;;;;;;;32.78;19.13;;;-1.50;99.90;;;;;;4992270;28;20116;-83
2021/12/11 05:39:03;;;;;;;33.78;19.13;;;-1.40;99.90;;;;;;4997662;28;20508;-83
2021/12/11 05:41:29;;;;;;;34.88;18.83;;;-2.40;99.90;;;;;;5009179;28;20052;-82
2021/12/11 05:43:55;;;;;;;35.10;19.48;;;-2.40;99.90;;;;;;4993167;28;20432;-83
2021/12/11 05:46:22;;;;;;;33.67;19.70;;;-2.20;99.90;;;;;;4994525;28;20431;-83
2021/12/11 05:48:51;;;;;;;32.95;18.92;;;-2.40;99.90;;;;;;5010099;28;20045;-83
2021/12/11 05:51:19;;;;;;;34.95;18.95;;;-1.90;99.90;;;;;;4994485;28;20038;-83
2021/12/11 05:53:46;;;;;;;35.53;19.02;;;-1.80;99.90;;;;;;5010270;28;20497;-83
2021/12/11 05:56:13;;;;;;;37.08;19.27;;;-1.30;99.90;;;;;;4994489;28;20118;-82
2021/12/11 06:01:22;;;;;;;32.30;17.95;;;-2.30;99.90;;;;;;5008594;28;20050;-83
2021/12/11 06:03:49;;;;;;;37.45;20.30;;;-1.40;99.90;;;;;;4997253;28;20058;-82
2021/12/11 06:06:15;;;;;;;37.78;21.30;;;-2.40;99.90;;;;;;5010985;28;20041;-82
2021/12/11 06:08:45;;;;;;;40.95;21.23;;;-2.50;99.90;;;;;;5008388;28;20588;-82
2021/12/11 06:11:25;;;;;;;;;;;;;;;;;;;;;
2021/12/11 06:13:51;;;;;;;44.65;22.52;;;-1.90;99.90;;;;;;5011999;28;20152;-83
2021/12/11 06:16:28;;;;;;;40.67;20.65;;;-1.80;99.90;;;;;;5013147;28;20033;-83
2021/12/11 06:19:04;;;;;;;44.67;22.02;;;-2.30;99.90;;;;;;4993738;28;20774;-82
2021/12/11 06:21:31;;;;;;;38.15;19.92;;;-2.90;99.90;;;;;;4996630;28;20041;-81
2021/12/11 06:23:57;;;;;;;36.90;20.27;;;-2.30;99.90;;;;;;5012061;28;20061;-81
2021/12/11 06:26:23;;;;;;;33.97;18.80;;;-2.30;99.90;;;;;;4993939;28;20033;-82
2021/12/11 06:28:52;;;;;;;36.67;19.52;;;-1.40;99.90;;;;;;5013686;28;20025;-82
2021/12/11 06:31:24;;;;;;;34.97;19.13;;;-2.30;99.90;;;;;;5013735;28;20041;-82
2021/12/11 06:33:54;;;;;;;37.25;20.10;;;-2.60;99.90;;;;;;5012931;28;20100;-83
2021/12/11 06:36:21;;;;;;;33.88;19.90;;;-1.20;99.90;;;;;;5013757;28;20040;-83
2021/12/11 06:38:58;;;;;;;33.55;19.55;;;-1.50;99.90;;;;;;5011367;28;20045;-83
2021/12/11 06:41:47;;;;;;;;;;;;;;;;;;;;;
2021/12/11 06:44:16;;;;;;;39.42;21.50;;;-1.60;99.90;;;;;;5012132;28;20044;-82
2021/12/11 06:46:43;;;;;;;43.67;23.73;;;-2.70;99.90;;;;;;5029060;28;20492;-82
2021/12/11 06:49:09;;;;;;;45.42;22.13;;;-1.60;99.90;;;;;;5012559;28;20041;-82
2021/12/11 06:51:36;;;;;;;39.75;22.25;;;-2.10;99.90;;;;;;5012638;28;20129;-83
2021/12/11 06:54:11;;;;;;;43.90;21.77;;;-1.10;99.90;;;;;;5001085;28;20033;-82
2021/12/11 06:56:37;;;;;;;;;;;-1.10;99.90;;;;;;5014558;28;20029;-82
2021/12/11 06:59:04;;;;;;;38.83;22.00;;;-1.50;99.90;;;;;;5009678;28;19935;-81
2021/12/11 07:01:36;;;;;;;43.72;20.75;;;-2.40;99.90;;;;;;4999665;28;20042;-83
2021/12/11 07:04:16;;;;;;;;;;;-2.30;99.90;;;;;;5022164;28;20383;-80
2021/12/11 07:07:22;;;;;;;38.72;21.73;;;-2.60;99.90;;;;;;4994825;28;19920;-81
2021/12/11 07:10:19;;;;;;;40.63;21.80;;;-1.30;99.90;;;;;;5009802;28;20049;-80
2021/12/11 07:12:48;;;;;;;42.70;23.27;;;-1.90;99.90;;;;;;5008799;28;20607;-83
2021/12/11 07:15:14;;;;;;;42.17;22.60;;;-1.60;99.90;;;;;;5012963;28;20503;-82
2021/12/11 07:17:40;;;;;;;37.72;20.17;;;-2.70;99.90;;;;;;5012900;28;20045;-80
2021/12/11 07:20:09;;;;;;;35.50;21.00;;;-1.90;99.90;;;;;;5012213;28;20049;-83
2021/12/11 07:22:39;;;;;;;37.75;21.00;;;-2.40;99.90;;;;;;4998748;28;20750;-83
2021/12/11 07:25:26;;;;;;;39.05;22.05;;;-1.70;99.90;;;;;;5012564;28;20045;-86
2021/12/11 07:27:54;;;;;;;36.67;18.70;;;-2.40;99.90;;;;;;5014419;28;20053;-81
2021/12/11 07:30:21;;;;;;;38.65;21.02;;;-1.20;99.90;;;;;;4997739;28;20034;-80
2021/12/11 07:33:08;;;;;;;40.63;22.25;;;-2.00;99.90;;;;;;5036117;28;20094;-81
2021/12/11 07:35:35;;;;;;;43.22;23.42;;;-2.00;99.90;;;;;;5019592;28;20052;-81
2021/12/11 07:38:05;;;;;;;40.83;21.15;;;-2.10;99.90;;;;;;4997458;28;20049;-81
2021/12/11 07:40:37;;;;;;;41.70;22.45;;;-1.10;99.90;;;;;;4992072;28;20061;-81
2021/12/11 07:43:07;;;;;;;41.53;22.67;;;-2.40;99.90;;;;;;4991820;28;20129;-81
2021/12/11 07:45:40;;;;;;;39.88;22.17;;;-1.10;99.90;;;;;;5015089;28;20046;-83
2021/12/11 07:48:14;;;;;;;46.70;24.17;;;-2.20;99.90;;;;;;4996206;28;20099;-81
2021/12/11 07:50:46;;;;;;;40.95;21.98;;;-1.50;99.90;;;;;;4996583;28;20034;-80
2021/12/11 07:53:15;;;;;;;49.10;23.55;;;-2.20;99.90;;;;;;5015512;28;20128;-79
2021/12/11 07:58:57;;;;;;;42.20;22.77;;;-2.10;99.90;;;;;;4949331;28;20043;-82
2021/12/11 08:01:33;;;;;;;40.15;22.95;;;-2.00;99.90;;;;;;4932136;29;20031;-84
2021/12/11 08:04:02;;;;;;;42.67;24.73;;;-1.60;99.90;;;;;;4916503;29;20066;-81
2021/12/11 08:06:46;;;;;;;46.78;26.35;;;-2.00;99.90;;;;;;4933267;29;20142;-82
2021/12/11 08:09:24;;;;;;;50.00;25.88;;;-0.70;99.90;;;;;;4947013;28;20102;-82
2021/12/11 08:12:12;;;;;;;45.42;25.38;;;-2.00;99.90;;;;;;4917767;29;20487;-81
2021/12/11 08:14:40;;;;;;;53.55;26.55;;;-1.90;99.90;;;;;;4949503;28;20039;-82
2021/12/11 08:17:07;;;;;;;55.85;27.25;;;-1.00;99.90;;;;;;4914781;29;20126;-83
2021/12/11 08:19:33;;;;;;;51.47;27.33;;;-0.90;99.90;;;;;;4944482;28;20043;-82
2021/12/11 08:22:07;;;;;;;52.00;28.30;;;-0.60;99.90;;;;;;4932601;29;20094;-83
2021/12/11 08:24:34;;;;;;;51.67;26.17;;;-1.70;99.90;;;;;;4948512;28;20043;-82
2021/12/11 08:27:11;;;;;;;51.75;27.25;;;-0.80;99.90;;;;;;4915051;28;20090;-82
2021/12/11 08:29:42;;;;;;;48.47;26.88;;;-1.60;99.90;;;;;;4916078;29;20063;-82
2021/12/11 08:32:09;;;;;;;52.72;28.35;;;-1.60;99.90;;;;;;4916073;29;20155;-82
2021/12/11 08:34:35;;;;;;;47.55;27.45;;;-0.70;99.90;;;;;;4916787;28;20066;-82
2021/12/11 08:37:07;;;;;;;53.20;28.15;;;-1.60;99.90;;;;;;4973264;28;20112;-82
2021/12/11 08:39:34;;;;;;;55.92;27.75;;;-1.60;99.90;;;;;;5004912;28;20033;-82
2021/12/11 08:42:02;;;;;;;49.55;27.77;;;-1.60;99.90;;;;;;4994210;28;20042;-83
2021/12/11 08:44:34;;;;;;;48.90;28.23;;;-0.60;99.90;;;;;;4991273;28;20042;-80
2021/12/11 08:47:02;;;;;;;49.90;28.23;;;-1.40;99.90;;;;;;5007319;28;20073;-80
2021/12/11 08:49:30;;;;;;;56.03;28.98;;;-1.40;99.90;;;;;;4991007;28;20037;-80
2021/12/11 08:51:58;;;;;;;54.97;29.42;;;-1.30;99.90;;;;;;4992345;28;20064;-79
2021/12/11 08:54:28;;;;;;;61.35;29.88;;;-1.30;99.90;;;;;;4991443;28;20100;-79
2021/12/11 08:56:55;;;;;;;53.65;28.95;;;-1.30;99.90;;;;;;4991297;28;20046;-80
2021/12/11 08:59:24;;;;;;;53.00;30.10;;;-1.20;99.90;;;;;;4991624;28;20100;-81
2021/12/11 09:02:00;;;;;;;46.67;26.55;;;-0.90;99.90;;;;;;4991967;28;20378;-79
2021/12/11 09:04:43;;;;;;;49.38;27.27;;;0.00;99.90;;;;;;4989247;28;20118;-78
2021/12/11 09:07:42;;;;;;;43.75;25.92;;;0.00;99.90;;;;;;4990883;28;20046;-77
2021/12/11 09:10:22;;;;;;;46.00;27.25;;;-0.40;99.90;;;;;;4893877;29;20123;-79
2021/12/11 09:13:08;;;;;;;52.17;28.48;;;-0.50;99.90;;;;;;4916282;29;20052;-80
2021/12/11 09:15:41;;;;;;;48.60;25.98;;;-0.60;99.90;;;;;;4896590;29;20041;-79
2021/12/11 09:18:14;;;;;;;50.38;28.08;;;-0.60;99.90;;;;;;4898633;29;20056;-77
2021/12/11 09:20:47;;;;;;;53.20;29.20;;;-0.60;99.90;;;;;;4898692;29;20052;-77
2021/12/11 09:23:26;;;;;;;59.63;28.77;;;-0.50;99.90;;;;;;4899882;29;20068;-76
2021/12/11 09:26:00;;;;;;;55.40;30.90;;;-0.50;99.90;;;;;;4899793;29;20044;-78
2021/12/11 09:28:34;;;;;;;59.97;31.80;;;-0.40;99.90;;;;;;4912679;29;20057;-78
2021/12/11 09:31:20;;;;;;;58.42;31.08;;;-0.30;99.90;;;;;;4918010;29;20399;-78
2021/12/11 09:33:55;;;;;;;71.43;33.60;;;-0.30;99.90;;;;;;4896168;29;20115;-79
2021/12/11 09:36:30;;;;;;;58.08;31.45;;;-0.20;99.90;;;;;;4882208;29;20032;-79
2021/12/11 09:39:05;;;;;;;65.43;32.28;;;-0.10;99.90;;;;;;4898586;29;20079;-80
2021/12/11 09:41:34;;;;;;;62.42;31.63;;;0.90;99.90;;;;;;4883068;29;20051;-83
2021/12/11 09:44:07;;;;;;;61.50;30.60;;;0.00;99.90;;;;;;4915955;29;20056;-81
2021/12/11 09:46:57;;;;;;;60.30;31.73;;;0.80;99.90;;;;;;4950253;28;20046;-80
2021/12/11 09:49:27;;;;;;;64.55;31.50;;;0.00;99.90;;;;;;5012720;28;20358;-80
2021/12/11 09:52:02;;;;;;;70.25;32.85;;;0.10;99.90;;;;;;4977624;28;20053;-80
2021/12/11 09:54:30;;;;;;;;;;;-0.30;99.90;;;;;;4980360;28;20523;-83
2021/12/11 09:57:49;;;;;;;;;;;;;;;;;;;;;
2021/12/11 10:01:04;;;;;;;58.10;30.80;;;0.30;99.90;;;;;;5013313;28;20056;-82
2021/12/11 10:03:45;;;;;;;65.45;30.67;;;0.30;99.90;;;;;;4978625;28;20069;-82
2021/12/11 10:06:42;;;;;;;59.15;30.25;;;1.40;99.90;;;;;;4972115;28;20029;-83
2021/12/11 10:09:48;;;;;;;64.18;32.55;;;1.10;99.90;;;;;;4980293;28;20076;-83
2021/12/11 10:12:26;;;;;;;65.80;32.00;;;0.40;99.90;;;;;;4935615;28;20137;-83
2021/12/11 10:15:19;;;;;;;63.10;32.83;;;1.40;99.90;;;;;;4934687;29;20118;-83
2021/12/11 10:17:54;;;;;;;66.22;32.30;;;0.60;99.90;;;;;;4934746;29;20051;-83
2021/12/11 10:20:43;;;;;;;61.78;31.83;;;1.30;99.90;;;;;;4917705;29;20193;-83
2021/12/11 10:23:31;;;;;;;76.85;34.50;;;0.70;99.90;;;;;;4933749;29;20055;-83
2021/12/11 10:26:10;;;;;;;72.32;35.63;;;0.30;99.90;;;;;;4920099;29;20051;-83
2021/12/11 10:29:09;;;;;;;63.63;33.72;;;1.80;99.90;;;;;;4877496;29;20055;-83
2021/12/11 10:31:44;;;;;;;59.95;32.00;;;0.30;99.90;;;;;;4896024;29;20052;-80
2021/12/11 10:34:14;;;;;;;70.70;34.20;;;1.40;99.90;;;;;;4910402;29;20440;-82
2021/12/11 10:36:44;;;;;;;65.30;33.80;;;1.10;99.90;;;;;;4914643;29;20535;-81
2021/12/11 10:39:14;;;;;;;74.13;35.38;;;1.30;99.90;;;;;;4930170;29;20164;-79
2021/12/11 10:41:41;;;;;;;68.43;33.67;;;1.90;99.90;;;;;;4933785;29;20494;-81
2021/12/11 10:44:13;;;;;;;73.75;35.63;;;1.40;99.90;;;;;;4915503;29;20083;-79
2021/12/11 10:46:51;;;;;;;74.75;35.67;;;1.40;99.90;;;;;;4915557;29;20062;-77
2021/12/11 10:49:19;;;;;;;74.20;36.45;;;1.50;99.90;;;;;;4944007;28;20047;-80
2021/12/11 10:51:50;;;;;;;79.65;34.92;;;1.40;99.90;;;;;;4973999;28;20944;-80
2021/12/11 10:54:17;;;;;;;72.47;34.45;;;2.10;99.90;;;;;;4950273;28;20081;-79
2021/12/11 10:56:45;;;;;;;72.00;35.22;;;1.90;99.90;;;;;;4982639;28;20396;-79
2021/12/11 10:59:17;;;;;;;65.22;33.75;;;1.90;99.90;;;;;;5028821;28;20460;-80
2021/12/11 11:01:51;;;;;;;77.55;35.92;;;2.10;99.90;;;;;;5007378;28;20049;-78
2021/12/11 11:04:21;;;;;;;67.72;32.85;;;2.20;99.90;;;;;;5009626;28;20568;-78
2021/12/11 11:06:47;;;;;;;69.65;32.65;;;2.40;99.90;;;;;;5006960;28;20444;-77
2021/12/11 11:09:15;;;;;;;61.17;32.65;;;2.50;99.90;;;;;;5007306;28;20057;-76
2021/12/11 11:11:43;;;;;;;67.90;33.70;;;2.70;99.90;;;;;;4994522;28;20046;-77
2021/12/11 11:14:10;;;;;;;50.38;29.08;;;2.80;99.90;;;;;;4994380;28;20061;-79
2021/12/11 11:16:40;;;;;;;48.50;27.80;;;3.00;99.90;;;;;;4992360;28;20046;-78
2021/12/11 11:19:06;;;;;;;52.45;28.27;;;3.10;99.90;;;;;;4989532;28;20050;-78
2021/12/11 11:21:39;;;;;;;53.85;25.67;;;3.10;99.90;;;;;;4992713;28;20573;-77
2021/12/11 11:24:06;;;;;;;54.30;25.02;;;3.20;99.90;;;;;;4998794;28;20061;-76
2021/12/11 11:26:35;;;;;;;42.67;24.75;;;3.20;99.90;;;;;;4993922;28;20034;-77
2021/12/11 11:29:05;;;;;;;40.10;23.55;;;3.20;99.90;;;;;;4990128;28;20053;-77
2021/12/11 11:31:36;;;;;;;46.97;25.95;;;3.20;99.90;;;;;;4990443;28;20152;-75
2021/12/11 11:34:06;;;;;;;44.08;24.35;;;3.40;99.90;;;;;;4990948;28;20050;-76
2021/12/11 11:36:34;;;;;;;40.97;23.25;;;3.20;99.90;;;;;;4989306;28;20125;-76
2021/12/11 11:39:05;;;;;;;38.67;23.90;;;3.20;99.90;;;;;;4994794;28;20049;-76
2021/12/11 11:41:36;;;;;;;40.63;22.27;;;3.20;99.90;;;;;;4979248;28;20076;-76
2021/12/11 11:44:03;;;;;;;39.55;22.20;;;3.20;99.90;;;;;;4993623;28;20059;-76
2021/12/11 11:46:30;;;;;;;35.58;21.05;;;3.20;99.90;;;;;;4995267;28;20379;-79
2021/12/11 11:48:59;;;;;;;36.55;20.98;;;3.10;99.90;;;;;;4991452;28;20118;-76
2021/12/11 11:51:39;;;;;;;33.00;21.77;;;3.10;99.90;;;;;;4996329;28;20123;-75
2021/12/11 11:54:07;;;;;;;37.50;20.65;;;3.10;99.90;;;;;;4995705;28;20057;-78
2021/12/11 11:56:40;;;;;;;32.33;19.25;;;3.00;99.90;;;;;;4994656;28;20493;-78
2021/12/11 11:59:08;;;;;;;33.80;19.52;;;2.90;99.90;;;;;;4974802;28;20137;-78
2021/12/11 12:01:41;;;;;;;39.33;20.05;;;2.90;99.90;;;;;;4981684;28;20530;-78
2021/12/11 12:04:11;;;;;;;38.92;21.25;;;2.90;99.90;;;;;;4992429;28;20088;-78
2021/12/11 12:06:39;;;;;;;34.05;20.52;;;2.90;99.90;;;;;;4993723;28;20054;-77
2021/12/11 12:09:08;;;;;;;33.33;20.52;;;2.90;99.90;;;;;;4995214;28;20069;-78
2021/12/11 12:11:36;;;;;;;39.05;20.60;;;2.80;99.90;;;;;;5006987;28;20045;-78
2021/12/11 12:14:07;;;;;;;35.25;20.15;;;2.80;99.90;;;;;;5008278;28;20057;-77
2021/12/11 12:16:34;;;;;;;34.10;21.73;;;2.90;99.90;;;;;;5010469;28;20075;-79
2021/12/11 12:19:03;;;;;;;35.35;21.02;;;2.90;99.90;;;;;;5010785;28;20053;-79
2021/12/11 12:21:30;;;;;;;34.50;20.52;;;3.20;99.90;;;;;;5012025;28;20071;-79
2021/12/11 12:23:56;;;;;;;35.17;21.17;;;3.00;99.90;;;;;;5028344;28;20057;-77
2021/12/11 12:26:25;;;;;;;35.13;20.30;;;3.00;99.90;;;;;;5013407;28;20156;-79
2021/12/11 12:28:52;;;;;;;33.60;20.25;;;3.00;99.90;;;;;;4993556;28;20424;-78
2021/12/11 12:31:29;;;;;;;37.50;19.75;;;3.10;99.90;;;;;;5009205;28;20457;-81
2021/12/11 12:33:58;;;;;;;34.78;20.23;;;3.00;99.90;;;;;;5009454;28;20037;-78
2021/12/11 12:36:25;;;;;;;33.72;19.90;;;3.10;99.90;;;;;;4995964;28;20040;-77
2021/12/11 12:38:53;;;;;;;37.53;21.30;;;3.00;99.90;;;;;;5012307;28;20072;-80
2021/12/11 12:41:28;;;;;;;37.47;20.63;;;3.10;99.90;;;;;;5009315;28;20061;-78
2021/12/11 12:46:48;;;;;;;34.17;20.42;;;3.20;99.90;;;;;;5007324;28;20473;-78
2021/12/11 12:49:15;;;;;;;35.15;20.15;;;3.30;99.90;;;;;;5027963;28;20045;-77
2021/12/11 12:51:41;;;;;;;32.83;19.33;;;3.30;99.90;;;;;;5011515;28;20033;-79
2021/12/11 12:54:12;;;;;;;36.38;20.52;;;3.30;99.90;;;;;;5008709;28;20188;-80
2021/12/11 12:56:54;;;;;;;38.65;21.35;;;3.30;99.90;;;;;;5010451;28;20177;-78
2021/12/11 12:59:33;;;;;;;31.60;20.33;;;3.30;99.90;;;;;;5009880;28;20132;-78
2021/12/11 13:02:03;;;;;;;32.03;20.10;;;3.30;99.90;;;;;;4994590;28;20063;-81
2021/12/11 13:04:32;;;;;;;33.78;19.95;;;3.20;99.90;;;;;;5009273;28;20187;-80
2021/12/11 13:07:02;;;;;;;37.75;21.38;;;3.20;99.90;;;;;;5027412;28;20044;-78
2021/12/11 13:09:30;;;;;;;38.17;20.80;;;3.20;99.90;;;;;;5013573;28;20053;-79
2021/12/11 13:12:31;;;;;;;31.33;20.60;;;3.20;99.90;;;;;;5012790;28;20049;-78
2021/12/11 13:15:04;;;;;;;31.15;19.75;;;3.20;99.90;;;;;;5012289;28;20146;-78
2021/12/11 13:17:35;;;;;;;32.92;20.40;;;3.20;99.90;;;;;;5011801;28;20050;-79
2021/12/11 13:20:13;;;;;;;35.05;21.45;;;3.20;99.90;;;;;;5029716;28;20057;-80
2021/12/11 13:22:42;;;;;;;41.33;21.15;;;3.20;99.90;;;;;;5007348;28;20390;-78
2021/12/11 13:25:14;;;;;;;45.92;22.65;;;3.10;99.90;;;;;;5008428;28;20053;-78